Time;durP1;ratioP1;P1;durP2;ratioP2;P2;SDS_P1;SDS_P2;PMS_P1;PMS_P2;Temp;Humidity;BMP_temperature;BMP_pressure;BME280_temperature;BME280_humidity;BME280_pressure;Samples;Min_cycle;Max_cycle;Signal;HPM_P1;HPM_P2
2023/05/06 00:02:00;;;;;;;4.30;2.00;;;;;;;10.51;54.00;101176.44;111375;1232;58979;-91
2023/05/06 00:04:27;;;;;;;6.60;1.90;;;;;;;10.49;54.06;101175.65;111281;1232;61171;-90
2023/05/06 00:06:56;;;;;;;4.20;1.90;;;;;;;10.44;54.07;101172.38;111335;1232;75628;-91
2023/05/06 00:09:23;;;;;;;6.00;2.20;;;;;;;10.41;54.14;101169.86;111277;1234;71541;-91
2023/05/06 00:11:50;;;;;;;4.00;1.90;;;;;;;10.37;54.27;101168.55;111287;1233;72446;-90
2023/05/06 00:14:19;;;;;;;5.50;2.00;;;;;;;10.33;54.21;101167.86;111236;1231;61931;-91
2023/05/06 00:16:46;;;;;;;4.20;2.10;;;;;;;10.27;54.35;101172.59;111326;1231;61177;-93
2023/05/06 00:19:13;;;;;;;3.50;1.70;;;;;;;10.23;54.47;101175.54;111294;1231;75869;-91
2023/05/06 00:21:40;;;;;;;3.60;1.90;;;;;;;10.20;54.56;101176.75;111341;1231;72857;-93
2023/05/06 00:24:07;;;;;;;4.40;1.90;;;;;;;10.18;54.59;101181.48;111289;1230;71770;-91
2023/05/06 00:26:33;;;;;;;4.30;1.80;;;;;;;10.19;54.67;101182.29;111249;1233;60093;-91
2023/05/06 00:29:01;;;;;;;3.60;2.10;;;;;;;10.19;54.65;101179.20;111284;1231;61415;-91
2023/05/06 00:31:28;;;;;;;3.50;1.60;;;;;;;10.20;54.81;101180.86;111372;1233;74700;-92
2023/05/06 00:33:56;;;;;;;3.40;1.80;;;;;;;10.21;54.82;101184.26;111392;1231;71625;-91
2023/05/06 00:36:23;;;;;;;4.30;2.20;;;;;;;10.23;54.98;101191.80;111862;1233;71365;-94
2023/05/06 00:38:51;;;;;;;5.80;2.30;;;;;;;10.26;55.26;101199.48;111368;1231;61227;-90
2023/05/06 00:41:18;;;;;;;3.50;1.90;;;;;;;10.29;55.47;101207.06;111363;1231;61148;-92
2023/05/06 00:43:46;;;;;;;3.70;2.00;;;;;;;10.32;55.43;101206.54;111252;1231;75445;-92
2023/05/06 00:46:13;;;;;;;3.90;1.90;;;;;;;10.33;55.46;101209.19;111248;1232;73063;-92
2023/05/06 00:48:39;;;;;;;4.80;2.10;;;;;;;10.32;55.67;101210.06;111211;1230;71612;-91
2023/05/06 00:51:10;;;;;;;3.30;1.90;;;;;;;10.29;55.68;101211.77;111256;1230;62419;-90
2023/05/06 00:53:37;;;;;;;5.60;2.20;;;;;;;10.25;55.66;101211.68;111457;1231;61117;-92
2023/05/06 00:56:05;;;;;;;3.40;1.80;;;;;;;10.19;55.68;101211.08;111183;1232;74194;-91
2023/05/06 00:58:32;;;;;;;4.00;2.00;;;;;;;10.16;55.67;101212.34;111255;1231;70750;-93
2023/05/06 01:01:00;;;;;;;3.90;1.90;;;;;;;10.13;55.76;101214.80;111369;1230;71239;-93
2023/05/06 01:03:27;;;;;;;3.80;1.90;;;;;;;10.14;55.77;101216.37;111409;1231;61213;-93
2023/05/06 01:06:37;;;;;;;2.90;1.90;;;;;;;10.14;55.71;101219.56;111367;1231;61101;-91
2023/05/06 01:09:24;;;;;;;2.60;1.50;;;;;;;10.15;55.87;101219.01;111098;1236;72908;-90
2023/05/06 01:12:03;;;;;;;2.50;1.60;;;;;;;10.16;55.78;101226.48;111324;1231;71780;-93
2023/05/06 01:14:54;;;;;;;2.50;1.70;;;;;;;10.14;55.81;101223.80;111229;1232;73639;-91
2023/05/06 01:17:21;;;;;;;3.70;1.60;;;;;;;10.12;55.86;101224.81;111136;1232;62678;-90
2023/05/06 01:19:48;;;;;;;5.50;1.80;;;;;;;10.09;56.00;101227.64;111040;1230;61220;-91
2023/05/06 01:22:15;;;;;;;2.60;1.70;;;;;;;10.08;55.98;101230.84;111207;1235;74217;-91
2023/05/06 01:24:42;;;;;;;4.10;1.80;;;;;;;10.09;56.02;101231.34;111377;1231;72015;-91
2023/05/06 01:27:10;;;;;;;3.60;1.70;;;;;;;10.11;56.05;101234.31;111377;1231;70928;-93
2023/05/06 01:29:40;;;;;;;3.50;1.80;;;;;;;10.10;56.09;101231.09;111348;1231;61863;-93
2023/05/06 01:32:18;;;;;;;3.20;2.00;;;;;;;10.10;56.01;101233.02;111189;1230;60121;-90
2023/05/06 01:34:56;;;;;;;4.00;1.90;;;;;;;10.10;55.96;101232.15;111332;1230;76028;-91
2023/05/06 01:38:01;;;;;;;4.50;2.30;;;;;;;10.09;55.97;101230.69;111338;1232;72680;-92
2023/05/06 01:40:29;;;;;;;3.40;1.60;;;;;;;10.07;55.99;101229.48;111315;1231;73495;-90
2023/05/06 01:42:56;;;;;;;3.90;2.00;;;;;;;10.07;56.12;101232.05;111193;1231;61209;-92
2023/05/06 01:45:25;;;;;;;3.00;1.80;;;;;;;10.05;56.03;101234.23;111287;1230;60947;-91
2023/05/06 01:47:51;;;;;;;3.50;1.90;;;;;;;10.02;56.08;101233.38;111126;1230;72136;-92
2023/05/06 01:50:20;;;;;;;3.70;2.00;;;;;;;9.98;56.24;101234.48;111321;1237;72149;-93
2023/05/06 01:53:01;;;;;;;5.60;2.00;;;;;;;9.97;56.26;101234.63;111309;1231;71973;-93
2023/05/06 01:55:28;;;;;;;3.10;1.70;;;;;;;9.99;56.32;101244.73;111313;1231;61239;-91
2023/05/06 01:57:58;;;;;;;3.20;1.80;;;;;;;9.99;56.41;101250.83;111262;1232;60020;-90
2023/05/06 02:00:25;;;;;;;2.80;1.70;;;;;;;9.97;56.48;101250.73;111133;1230;73720;-89
2023/05/06 02:02:52;;;;;;;3.00;1.70;;;;;;;9.95;56.71;101252.77;111404;1234;73028;-91
2023/05/06 02:05:20;;;;;;;3.00;1.90;;;;;;;9.94;56.68;101258.73;111302;1234;72654;-91
2023/05/06 02:07:48;;;;;;;3.90;1.80;;;;;;;9.92;56.78;101267.92;111222;1230;62086;-93
2023/05/06 02:10:14;;;;;;;2.60;1.70;;;;;;;9.88;56.89;101265.06;111223;1230;61242;-91
2023/05/06 02:12:47;;;;;;;2.40;1.50;;;;;;;9.86;56.93;101265.23;111419;1231;73456;-91
2023/05/06 02:15:14;;;;;;;2.90;1.80;;;;;;;9.83;57.00;101274.30;111189;1230;72539;-93
2023/05/06 02:17:42;;;;;;;3.40;1.90;;;;;;;9.78;57.06;101273.13;111236;1232;70837;-92
2023/05/06 02:20:09;;;;;;;3.60;1.80;;;;;;;9.72;57.12;101272.45;111218;1232;61046;-94
2023/05/06 02:22:36;;;;;;;4.40;1.90;;;;;;;9.70;57.16;101276.95;111207;1231;61245;-91
2023/05/06 02:25:03;;;;;;;3.70;1.80;;;;;;;9.66;57.17;101275.95;111031;1230;74855;-93
2023/05/06 02:27:30;;;;;;;2.80;1.80;;;;;;;9.63;57.21;101277.92;111405;1231;72834;-93
2023/05/06 02:29:58;;;;;;;3.00;1.90;;;;;;;9.62;57.27;101275.65;111170;1231;71337;-91
2023/05/06 02:32:24;;;;;;;3.00;1.70;;;;;;;9.61;57.29;101273.34;111352;1232;61306;-90
2023/05/06 02:34:53;;;;;;;2.60;1.40;;;;;;;9.60;57.14;101275.39;111356;1231;60968;-91
2023/05/06 02:37:21;;;;;;;3.40;1.50;;;;;;;9.60;57.11;101279.77;111425;1231;73479;-93
2023/05/06 02:39:48;;;;;;;3.00;1.60;;;;;;;9.59;57.17;101280.29;111369;1229;73599;-91
2023/05/06 02:42:15;;;;;;;2.70;1.90;;;;;;;9.59;57.07;101279.10;111375;1233;72221;-93
2023/05/06 02:44:42;;;;;;;3.40;1.80;;;;;;;9.59;57.01;101278.41;111346;1231;61301;-91
2023/05/06 02:47:09;;;;;;;2.80;1.50;;;;;;;9.56;57.00;101281.44;111434;1233;61117;-92
2023/05/06 02:49:38;;;;;;;2.80;1.60;;;;;;;9.56;57.03;101283.67;111295;1231;74180;-89
2023/05/06 02:52:06;;;;;;;4.10;1.70;;;;;;;9.55;56.90;101285.73;111167;1231;70772;-91
2023/05/06 02:54:33;;;;;;;3.20;1.70;;;;;;;9.55;56.71;101286.27;111365;1231;72953;-90
2023/05/06 02:57:01;;;;;;;2.20;1.30;;;;;;;9.50;56.64;101290.69;111378;1231;61137;-91
2023/05/06 02:59:28;;;;;;;2.10;1.30;;;;;;;9.46;56.63;101294.55;111150;1230;61313;-92
2023/05/06 03:01:55;;;;;;;2.40;1.40;;;;;;;9.45;56.39;101293.55;111200;1231;74592;-91
2023/05/06 03:04:22;;;;;;;2.90;1.70;;;;;;;9.44;56.33;101296.48;111414;1230;73540;-92
2023/05/06 03:06:49;;;;;;;3.50;1.80;;;;;;;9.45;56.41;101294.78;111185;1231;72817;-93
2023/05/06 03:09:19;;;;;;;3.10;1.60;;;;;;;9.46;56.50;101298.80;111392;1230;61204;-92
2023/05/06 03:11:46;;;;;;;3.10;1.40;;;;;;;9.50;56.56;101307.20;111413;1230;61094;-90
2023/05/06 03:14:16;;;;;;;3.40;1.50;;;;;;;9.53;56.44;101304.04;111392;1231;72881;-92
2023/05/06 03:16:44;;;;;;;2.50;1.50;;;;;;;9.53;55.99;101310.17;111414;1231;71544;-91
2023/05/06 03:19:11;;;;;;;2.50;1.30;;;;;;;9.55;55.71;101314.17;111388;1230;71789;-92
2023/05/06 03:21:39;;;;;;;2.70;1.40;;;;;;;9.60;55.54;101322.88;111293;1231;61189;-90
2023/05/06 03:24:06;;;;;;;3.10;1.40;;;;;;;9.64;55.38;101326.54;111371;1231;61136;-92
2023/05/06 03:26:37;;;;;;;4.20;1.50;;;;;;;9.63;54.69;101329.23;111397;1231;74549;-90
2023/05/06 03:29:08;;;;;;;2.70;1.40;;;;;;;9.61;54.39;101331.06;111347;1230;70726;-93
2023/05/06 03:31:35;;;;;;;3.10;1.50;;;;;;;9.62;54.34;101328.41;111306;1230;72448;-91
2023/05/06 03:34:02;;;;;;;3.70;1.60;;;;;;;9.64;54.12;101330.48;111421;1231;61218;-90
2023/05/06 03:36:30;;;;;;;4.90;1.70;;;;;;;9.64;53.85;101324.83;111172;1237;61111;-92
2023/05/06 03:39:00;;;;;;;2.90;1.50;;;;;;;9.62;53.43;101328.16;111207;1231;75387;-91
2023/05/06 03:41:28;;;;;;;3.30;1.70;;;;;;;9.62;53.27;101332.04;111206;1230;72014;-93
2023/05/06 03:43:55;;;;;;;3.00;1.50;;;;;;;9.62;53.04;101334.45;111198;1232;71007;-91
2023/05/06 03:46:25;;;;;;;3.30;1.80;;;;;;;9.59;52.94;101337.15;111305;1231;61114;-91
2023/05/06 03:48:54;;;;;;;3.90;1.60;;;;;;;9.57;52.72;101338.80;111405;1230;61256;-92
2023/05/06 03:51:22;;;;;;;3.00;1.70;;;;;;;9.56;52.63;101344.11;111118;1232;73397;-93
2023/05/06 03:53:49;;;;;;;4.10;1.80;;;;;;;9.57;52.49;101350.73;111108;1230;71593;-92
2023/05/06 03:56:21;;;;;;;3.50;1.90;;;;;;;9.58;52.37;101353.77;111395;1231;71590;-93
2023/05/06 03:58:49;;;;;;;3.90;1.70;;;;;;;9.66;52.26;101357.41;111234;1231;61248;-92
2023/05/06 04:01:17;;;;;;;3.70;1.90;;;;;;;9.75;52.07;101363.29;111234;1231;61261;-93
2023/05/06 04:03:44;;;;;;;5.70;1.90;;;;;;;9.83;51.76;101366.78;111307;1230;75459;-92
2023/05/06 04:06:12;;;;;;;4.70;2.00;;;;;;;9.93;51.58;101364.16;111133;1231;73002;-93
2023/05/06 04:08:40;;;;;;;4.70;1.90;;;;;;;9.96;51.19;101364.18;111292;1232;73749;-91
2023/05/06 04:11:08;;;;;;;3.40;2.00;;;;;;;10.02;51.03;101372.13;111268;1230;61187;-90
2023/05/06 04:13:36;;;;;;;3.50;1.80;;;;;;;10.08;50.83;101372.09;111305;1231;61118;-90
2023/05/06 04:16:06;;;;;;;3.50;1.90;;;;;;;10.11;50.40;101371.02;111203;1230;75244;-90
2023/05/06 04:18:38;;;;;;;4.20;1.90;;;;;;;10.15;50.33;101371.16;111435;1231;71717;-91
2023/05/06 04:21:10;;;;;;;4.90;1.80;;;;;;;10.25;50.41;101369.21;111446;1230;73983;-91
2023/05/06 04:23:40;;;;;;;4.00;1.80;;;;;;;10.36;50.32;101372.83;111350;1231;60040;-88
2023/05/06 04:26:07;;;;;;;3.00;1.60;;;;;;;10.45;50.02;101372.27;111079;1230;60436;-91
2023/05/06 04:28:35;;;;;;;4.60;1.80;;;;;;;10.46;49.55;101367.84;111115;1231;74710;-92
2023/05/06 04:31:02;;;;;;;3.60;1.70;;;;;;;10.42;49.29;101368.40;111418;1230;72901;-91
2023/05/06 04:33:36;;;;;;;3.90;1.90;;;;;;;10.33;49.25;101378.58;111408;1230;72409;-90
2023/05/06 04:36:05;;;;;;;4.00;2.00;;;;;;;10.27;49.34;101381.10;111463;1230;61113;-91
2023/05/06 04:38:34;;;;;;;4.20;2.10;;;;;;;10.24;49.39;101391.83;111206;1231;59944;-91
2023/05/06 04:41:04;;;;;;;3.60;1.90;;;;;;;10.29;49.50;101390.61;111404;1233;74056;-90
2023/05/06 04:43:31;;;;;;;4.70;2.20;;;;;;;10.40;49.65;101389.98;111085;1230;73635;-90
2023/05/06 04:46:05;;;;;;;3.20;1.70;;;;;;;10.54;49.27;101382.42;111440;1232;72799;-89
2023/05/06 04:48:33;;;;;;;4.70;2.00;;;;;;;10.64;49.00;101385.35;111385;1234;61215;-93
2023/05/06 04:51:04;;;;;;;4.10;2.10;;;;;;;10.72;48.69;101390.48;111193;1231;61038;-93
2023/05/06 04:53:31;;;;;;;3.20;2.00;;;;;;;10.79;48.29;101394.63;111410;1231;73342;-91
2023/05/06 04:55:59;;;;;;;3.70;2.00;;;;;;;10.82;47.66;101391.59;111348;1232;72738;-91
2023/05/06 04:58:26;;;;;;;3.70;2.20;;;;;;;10.87;47.55;101388.63;111261;1236;72770;-93
2023/05/06 05:00:54;;;;;;;3.80;2.00;;;;;;;10.94;47.50;101391.87;111223;1232;61239;-90
2023/05/06 05:03:20;;;;;;;5.50;2.30;;;;;;;11.01;46.92;101392.21;111372;1231;59958;-89
2023/05/06 05:05:48;;;;;;;5.00;2.20;;;;;;;11.04;46.34;101391.63;111529;1231;74491;-90
2023/05/06 05:08:16;;;;;;;3.50;1.80;;;;;;;11.06;46.12;101391.13;111374;1232;72894;-92
2023/05/06 05:10:50;;;;;;;4.10;2.00;;;;;;;11.13;46.25;101394.17;111322;1231;71346;-91
2023/05/06 05:13:20;;;;;;;3.70;1.80;;;;;;;11.27;45.98;101394.23;111113;1230;61573;-92
2023/05/06 05:15:47;;;;;;;3.50;1.80;;;;;;;11.40;45.19;101394.98;111344;1230;170089;-91
2023/05/06 05:18:15;;;;;;;4.00;2.10;;;;;;;11.46;44.44;101390.61;111365;1231;75631;-91
2023/05/06 05:20:43;;;;;;;3.90;1.70;;;;;;;11.49;44.44;101390.67;111383;1232;72690;-92
2023/05/06 05:23:11;;;;;;;4.50;2.00;;;;;;;11.56;44.33;101395.83;111382;1230;71595;-93
2023/05/06 05:25:38;;;;;;;4.20;1.80;;;;;;;11.58;44.26;101394.86;111168;1230;60307;-90
2023/05/06 05:28:05;;;;;;;4.20;1.80;;;;;;;11.61;43.92;101393.84;111204;1230;61161;-90
2023/05/06 05:30:33;;;;;;;3.30;1.60;;;;;;;11.71;43.68;101394.05;111220;1231;74707;-89
2023/05/06 05:33:00;;;;;;;3.50;1.70;;;;;;;11.77;42.84;101393.17;111042;1230;72343;-91
2023/05/06 05:35:28;;;;;;;3.30;1.80;;;;;;;11.78;42.58;101394.90;111144;1232;71906;-91
2023/05/06 05:37:56;;;;;;;5.10;1.90;;;;;;;11.76;41.73;101387.42;111359;1234;61120;-91
2023/05/06 05:40:23;;;;;;;3.80;1.80;;;;;;;11.71;41.37;101391.79;111177;1230;61117;-93
2023/05/06 05:42:52;;;;;;;3.30;1.80;;;;;;;11.68;41.34;101388.48;111437;1232;74261;-90
2023/05/06 05:45:24;;;;;;;4.10;1.70;;;;;;;11.65;41.63;101387.70;111466;1231;71686;-92
2023/05/06 05:47:52;;;;;;;3.90;1.70;;;;;;;11.69;41.32;101379.52;111134;1231;71398;-91
2023/05/06 05:50:23;;;;;;;3.60;1.80;;;;;;;11.70;40.93;101386.45;111143;1231;61097;-92
2023/05/06 05:52:54;;;;;;;2.80;1.70;;;;;;;11.80;41.20;101385.03;111151;1231;60294;-92
2023/05/06 05:55:21;;;;;;;4.10;2.00;;;;;;;11.93;41.27;101386.54;111131;1231;73742;-93
2023/05/06 05:57:49;;;;;;;4.50;1.80;;;;;;;12.05;40.22;101388.05;111383;1231;73310;-91
2023/05/06 06:00:18;;;;;;;4.10;1.80;;;;;;;12.10;39.73;101386.58;111249;1231;72450;-91
2023/05/06 06:02:45;;;;;;;5.60;1.70;;;;;;;12.17;39.49;101385.80;111221;1231;61184;-90
2023/05/06 06:05:15;;;;;;;2.60;1.50;;;;;;;12.29;39.96;101386.98;111212;1231;61283;-91
2023/05/06 06:07:42;;;;;;;5.00;1.90;;;;;;;12.42;37.98;101390.33;111077;1239;75189;-90
2023/05/06 06:10:12;;;;;;;3.70;1.60;;;;;;;12.53;37.85;101390.93;111162;1237;72603;-89
2023/05/06 06:12:39;;;;;;;3.50;1.70;;;;;;;12.63;37.08;101385.42;111306;1231;71004;-93
2023/05/06 06:15:07;;;;;;;3.00;1.60;;;;;;;12.66;36.42;101391.58;111172;1231;60173;-91
2023/05/06 06:17:38;;;;;;;;;;;;;;;12.66;35.06;101391.52;111412;1231;61118;-88
2023/05/06 06:20:06;;;;;;;3.40;1.60;;;;;;;12.67;33.79;101382.48;111202;1231;74493;-91
2023/05/06 06:22:34;;;;;;;2.60;1.50;;;;;;;12.71;32.91;101399.03;111334;1231;71774;-91
2023/05/06 06:25:01;;;;;;;4.20;1.60;;;;;;;12.79;32.14;101391.39;111145;1232;72242;-91
2023/05/06 06:27:28;;;;;;;3.70;1.50;;;;;;;12.86;32.04;101392.18;111381;1235;60999;-89
2023/05/06 06:29:56;;;;;;;3.20;1.50;;;;;;;12.93;31.00;101397.66;111313;1231;61082;-88
2023/05/06 06:32:23;;;;;;;2.60;1.40;;;;;;;13.00;29.94;101402.35;111441;1231;74412;-89
2023/05/06 06:34:52;;;;;;;2.90;1.40;;;;;;;13.02;29.36;101398.99;111367;1231;72297;-90
2023/05/06 06:37:19;;;;;;;3.30;1.50;;;;;;;13.05;29.07;101403.00;111400;1231;71440;-89
2023/05/06 06:39:46;;;;;;;3.80;1.40;;;;;;;13.11;29.12;101401.02;111550;1231;59786;-92
2023/05/06 06:42:13;;;;;;;2.40;1.50;;;;;;;13.12;28.64;101406.66;111502;1231;61092;-88
2023/05/06 06:44:47;;;;;;;3.10;1.40;;;;;;;13.13;29.16;101408.77;111531;1231;73099;-88
2023/05/06 06:47:14;;;;;;;2.70;1.30;;;;;;;13.18;29.95;101414.77;111503;1231;73615;-88
2023/05/06 06:49:41;;;;;;;3.00;1.30;;;;;;;13.26;28.62;101409.23;111294;1231;71747;-89
2023/05/06 06:52:08;;;;;;;3.00;1.20;;;;;;;13.39;27.57;101411.46;111329;1232;59504;-92
2023/05/06 06:54:37;;;;;;;4.90;1.50;;;;;;;13.51;26.32;101413.17;111303;1231;61537;-90
2023/05/06 06:57:06;;;;;;;3.60;1.40;;;;;;;13.56;26.81;101403.06;111386;1231;74034;-90
2023/05/06 06:59:33;;;;;;;3.40;1.40;;;;;;;13.60;27.49;101397.85;111342;1231;71835;-93
2023/05/06 07:02:01;;;;;;;2.60;1.50;;;;;;;13.68;27.77;101399.41;111436;1235;71886;-91
2023/05/06 07:04:28;;;;;;;2.20;1.10;;;;;;;13.73;26.25;101398.11;111416;1231;61200;-88
2023/05/06 07:06:55;;;;;;;4.10;1.40;;;;;;;13.70;25.73;101403.02;111427;1231;61116;-89
2023/05/06 07:09:23;;;;;;;2.60;1.40;;;;;;;13.69;25.76;101406.99;111444;1231;73579;-92
2023/05/06 07:11:50;;;;;;;3.30;1.30;;;;;;;13.69;25.30;101408.81;111409;1231;72181;-91
2023/05/06 07:14:17;;;;;;;3.30;1.20;;;;;;;13.65;24.56;101410.02;111277;1231;71583;-92
2023/05/06 07:16:44;;;;;;;3.60;1.30;;;;;;;13.72;25.69;101416.67;111307;1231;62849;-93
2023/05/06 07:19:13;;;;;;;4.00;1.50;;;;;;;13.88;26.39;101417.48;111203;1231;61117;-90
2023/05/06 07:21:40;;;;;;;2.60;1.40;;;;;;;14.02;25.96;101418.34;111291;1231;72567;-93
2023/05/06 07:24:08;;;;;;;4.00;1.40;;;;;;;14.06;25.81;101416.23;111254;1231;71723;-88
2023/05/06 07:26:38;;;;;;;3.40;1.50;;;;;;;14.09;26.26;101414.78;111315;1231;72752;-90
2023/05/06 07:29:11;;;;;;;3.50;1.40;;;;;;;14.18;26.40;101407.91;111177;1232;59933;-88
2023/05/06 07:31:38;;;;;;;3.10;1.20;;;;;;;14.31;26.12;101411.63;111444;1231;61075;-90
2023/05/06 07:34:06;;;;;;;4.30;1.50;;;;;;;14.41;25.93;101403.73;111192;1235;74248;-91
2023/05/06 07:36:39;;;;;;;3.00;1.50;;;;;;;14.48;25.50;101413.55;111161;1231;71948;-90
2023/05/06 07:39:07;;;;;;;;;;;;;;;14.50;25.35;101404.69;111247;1232;73795;-91
2023/05/06 07:41:35;;;;;;;5.00;1.50;;;;;;;14.48;25.49;101402.00;111120;1231;61222;-90
2023/05/06 07:44:05;;;;;;;3.90;1.50;;;;;;;14.51;25.86;101398.41;111269;1231;61220;-88
2023/05/06 07:46:32;;;;;;;5.20;2.00;;;;;;;14.55;25.81;101405.70;111329;1232;72552;-92
2023/05/06 07:48:59;;;;;;;6.00;1.60;;;;;;;14.57;25.46;101407.87;111363;1231;70618;-89
2023/05/06 07:51:27;;;;;;;3.70;1.40;;;;;;;14.55;25.04;101410.17;111324;1231;72703;-89
2023/05/06 07:53:53;;;;;;;2.90;1.40;;;;;;;14.57;25.48;101405.40;111259;1231;61308;-90
2023/05/06 07:56:20;;;;;;;2.90;1.60;;;;;;;14.68;26.11;101403.55;111298;1231;61073;-90
2023/05/06 07:58:48;;;;;;;4.10;1.90;;;;;;;14.83;25.76;101404.40;111246;1232;74731;-89
2023/05/06 08:01:15;;;;;;;3.80;1.80;;;;;;;14.92;25.24;101410.46;111008;1232;72077;-88
2023/05/06 08:03:43;;;;;;;2.70;1.40;;;;;;;14.97;25.02;101415.69;110936;1238;73494;-87
2023/05/06 08:06:12;;;;;;;4.10;1.80;;;;;;;14.96;24.68;101420.33;111185;1231;61477;-91
2023/05/06 08:08:40;;;;;;;4.40;1.50;;;;;;;14.90;25.10;101414.00;110918;1231;61208;-93
2023/05/06 08:11:07;;;;;;;3.10;1.60;;;;;;;14.93;25.29;101414.33;110942;1231;72618;-90
2023/05/06 08:13:34;;;;;;;3.20;1.50;;;;;;;15.05;25.45;101416.73;111245;1231;72264;-89
2023/05/06 08:16:02;;;;;;;5.10;1.70;;;;;;;15.21;25.49;101418.37;111288;1231;72103;-89
2023/05/06 08:18:29;;;;;;;5.70;1.40;;;;;;;15.31;24.76;101421.56;111271;1232;61252;-90
2023/05/06 08:20:57;;;;;;;2.60;1.30;;;;;;;15.30;24.50;101424.15;111259;1231;61268;-92
2023/05/06 08:23:24;;;;;;;3.60;1.70;;;;;;;15.27;24.30;101425.45;111300;1232;72313;-90
2023/05/06 08:25:51;;;;;;;6.10;1.50;;;;;;;15.29;24.55;101414.77;111160;1231;71740;-91
2023/05/06 08:28:18;;;;;;;3.10;1.20;;;;;;;15.32;24.32;101413.60;110999;1231;72150;-89
2023/05/06 08:30:47;;;;;;;3.00;1.50;;;;;;;15.28;23.96;101416.88;111324;1231;61205;-88
2023/05/06 08:33:14;;;;;;;4.40;1.50;;;;;;;15.28;23.91;101412.64;111297;1231;59832;-91
2023/05/06 08:35:41;;;;;;;3.80;1.40;;;;;;;15.32;24.09;101419.58;111235;1231;75646;-91
2023/05/06 08:38:09;;;;;;;3.90;1.60;;;;;;;15.42;24.04;101414.65;111246;1231;72811;-91
2023/05/06 08:40:42;;;;;;;5.00;1.80;;;;;;;15.48;23.53;101417.49;111242;1231;72984;-90
2023/05/06 08:43:13;;;;;;;2.70;1.40;;;;;;;15.47;23.58;101412.23;111195;1231;61119;-90
2023/05/06 08:45:40;;;;;;;4.30;1.50;;;;;;;15.45;23.24;101408.83;111347;1231;61222;-93
2023/05/06 08:48:09;;;;;;;5.70;2.30;;;;;;;15.45;23.56;101414.05;111023;1231;73652;-90
2023/05/06 08:50:45;;;;;;;4.20;1.70;;;;;;;15.51;23.13;101413.35;111250;1231;73890;-91
2023/05/06 08:53:15;;;;;;;3.10;1.60;;;;;;;15.51;23.26;101418.05;110932;1231;73386;-92
2023/05/06 08:55:43;;;;;;;2.70;1.50;;;;;;;15.45;22.94;101420.14;110930;1233;59201;-90
2023/05/06 08:58:12;;;;;;;3.00;1.60;;;;;;;15.44;23.37;101420.98;111082;1231;61156;-93
2023/05/06 09:00:40;;;;;;;2.60;1.70;;;;;;;15.49;22.93;101420.94;110839;1231;75522;-92
2023/05/06 09:03:09;;;;;;;2.40;1.50;;;;;;;15.53;23.13;101422.23;110933;1232;71453;-89
2023/05/06 09:05:36;;;;;;;8.60;1.70;;;;;;;15.57;22.92;101428.85;111149;1231;72310;-88
2023/05/06 09:08:04;;;;;;;2.70;1.50;;;;;;;15.62;22.51;101427.08;111261;1231;61316;-92
2023/05/06 09:10:41;;;;;;;3.10;1.60;;;;;;;15.59;22.25;101431.77;111335;1231;61124;-91
2023/05/06 09:13:11;;;;;;;3.50;1.50;;;;;;;15.55;22.59;101426.11;111270;1231;75489;-89
2023/05/06 09:15:41;;;;;;;2.30;1.20;;;;;;;15.64;23.12;101427.52;111298;1231;71623;-90
2023/05/06 09:18:08;;;;;;;3.80;1.30;;;;;;;15.72;22.99;101429.05;111385;1231;70608;-90
2023/05/06 09:20:35;;;;;;;3.00;1.30;;;;;;;15.76;22.76;101436.32;111335;1231;61134;-90
2023/05/06 09:23:02;;;;;;;4.60;1.40;;;;;;;15.82;22.49;101429.48;111113;1232;61112;-89
2023/05/06 09:25:29;;;;;;;3.80;1.50;;;;;;;15.87;22.55;101426.45;111152;1231;73393;-89
2023/05/06 09:28:10;;;;;;;2.40;1.40;;;;;;;15.93;21.85;101435.40;111117;1231;71673;-90
2023/05/06 09:30:43;;;;;;;2.50;1.50;;;;;;;15.84;21.61;101424.05;111198;1231;72439;-92
2023/05/06 09:33:10;;;;;;;3.50;1.40;;;;;;;15.84;22.17;101420.37;111389;1231;61299;-92
2023/05/06 09:35:41;;;;;;;3.40;1.30;;;;;;;15.86;21.90;101419.89;111198;1231;61220;-92
2023/05/06 09:38:08;;;;;;;3.80;1.70;;;;;;;15.86;21.98;101417.29;111162;1232;73565;-92
2023/05/06 09:40:35;;;;;;;3.20;1.40;;;;;;;15.91;22.00;101419.02;111341;1231;72501;-91
2023/05/06 09:43:07;;;;;;;3.50;1.50;;;;;;;16.02;21.90;101417.92;111375;1231;73556;-91
2023/05/06 09:45:37;;;;;;;2.80;1.30;;;;;;;16.09;21.68;101407.61;110922;1235;61038;-89
2023/05/06 09:48:05;;;;;;;3.80;1.40;;;;;;;16.15;21.82;101409.43;111279;1231;59692;-87
2023/05/06 09:50:32;;;;;;;4.40;1.60;;;;;;;16.20;21.64;101408.30;111273;1231;74762;-88
2023/05/06 09:53:02;;;;;;;2.60;1.40;;;;;;;16.19;21.54;101405.44;111010;1231;74169;-92
2023/05/06 09:55:30;;;;;;;3.40;1.50;;;;;;;16.19;21.28;101411.26;111075;1231;71564;-90
2023/05/06 09:57:57;;;;;;;4.50;1.80;;;;;;;16.17;20.50;101413.47;111151;1231;62129;-90
2023/05/06 10:00:28;;;;;;;4.90;1.70;;;;;;;16.13;20.28;101411.21;111219;1231;60637;-91
2023/05/06 10:02:55;;;;;;;3.60;1.50;;;;;;;16.11;20.75;101404.64;111170;1232;73337;-89
2023/05/06 10:05:24;;;;;;;3.70;1.40;;;;;;;16.15;21.10;101394.93;111274;1231;73802;-93
2023/05/06 10:07:52;;;;;;;3.10;1.50;;;;;;;16.23;20.93;101395.98;111289;1236;72450;-90
2023/05/06 10:10:19;;;;;;;3.30;1.70;;;;;;;16.32;20.95;101399.03;111096;1231;61255;-91
2023/05/06 10:12:47;;;;;;;4.40;1.40;;;;;;;16.44;20.74;101405.41;111245;1231;61249;-88
2023/05/06 10:15:15;;;;;;;5.20;2.10;;;;;;;16.57;20.02;101396.02;111126;1237;73725;-89
2023/05/06 10:17:46;;;;;;;2.50;1.40;;;;;;;16.64;19.98;101399.72;111198;1231;71571;-91
2023/05/06 10:20:13;;;;;;;4.70;1.70;;;;;;;16.69;20.27;101404.77;111265;1231;72552;-91
2023/05/06 10:23:08;;;;;;;3.50;1.60;;;;;;;16.69;19.60;101399.86;111223;1231;61079;-92
2023/05/06 10:25:43;;;;;;;3.00;1.60;;;;;;;16.63;19.38;101403.39;111213;1231;61796;-90
2023/05/06 10:28:11;;;;;;;2.50;1.60;;;;;;;16.59;19.67;101398.93;111125;1231;72614;-91
2023/05/06 10:30:56;;;;;;;2.80;1.60;;;;;;;16.64;19.93;101401.94;111205;1231;73001;-91
2023/05/06 10:33:22;;;;;;;3.10;1.70;;;;;;;16.65;20.19;101402.15;111093;1237;73761;-90
2023/05/06 10:36:06;;;;;;;3.60;1.80;;;;;;;16.70;20.05;101402.77;111095;1231;61306;-92
2023/05/06 10:38:41;;;;;;;3.10;1.70;;;;;;;16.81;21.09;101400.86;111240;1235;61294;-91
2023/05/06 10:41:08;;;;;;;2.80;1.60;;;;;;;16.86;20.12;101400.01;111369;1231;75692;-90
2023/05/06 10:43:42;;;;;;;4.00;1.80;;;;;;;16.82;20.31;101403.93;110947;1231;72590;-92
2023/05/06 10:46:15;;;;;;;3.00;1.50;;;;;;;16.83;20.01;101403.66;111219;1231;71317;-89
2023/05/06 10:49:10;;;;;;;4.00;1.40;;;;;;;16.86;19.75;101401.31;111388;1231;61189;-89
2023/05/06 10:51:41;;;;;;;2.60;1.40;;;;;;;16.88;19.59;101402.44;111251;1231;61115;-89
2023/05/06 10:54:17;;;;;;;2.70;1.40;;;;;;;16.94;19.95;101399.44;111185;1231;75943;-92
2023/05/06 10:56:47;;;;;;;2.80;1.40;;;;;;;17.02;20.16;101392.47;111261;1231;73146;-87
2023/05/06 10:59:19;;;;;;;3.90;1.40;;;;;;;17.07;20.65;101388.23;111221;1231;73325;-89
2023/05/06 11:01:55;;;;;;;2.40;1.50;;;;;;;17.06;20.37;101397.79;111035;1231;61082;-90
2023/05/06 11:04:22;;;;;;;4.20;1.70;;;;;;;17.04;20.31;101393.05;111233;1236;61112;-89
2023/05/06 11:06:52;;;;;;;4.90;1.50;;;;;;;17.05;20.21;101378.52;111263;1231;74190;-90
2023/05/06 11:09:24;;;;;;;4.20;1.60;;;;;;;16.99;19.88;101385.63;111259;1231;74828;-89
2023/05/06 11:12:04;;;;;;;3.30;1.90;;;;;;;16.96;20.48;101395.42;111134;1231;72784;-89
2023/05/06 11:14:37;;;;;;;3.60;1.80;;;;;;;16.96;20.05;101392.45;111262;1235;61890;-91
2023/05/06 11:17:08;;;;;;;3.30;1.80;;;;;;;16.94;20.13;101394.09;111263;1231;61331;-91
2023/05/06 11:19:38;;;;;;;2.60;1.50;;;;;;;16.99;20.49;101392.33;111222;1231;74343;-90
2023/05/06 11:22:06;;;;;;;4.80;1.80;;;;;;;17.11;20.16;101386.59;111278;1235;72125;-92
2023/05/06 11:24:41;;;;;;;3.10;1.80;;;;;;;17.20;19.71;101382.64;111406;1231;72683;-91
2023/05/06 11:27:09;;;;;;;3.90;1.60;;;;;;;17.20;19.51;101384.26;111185;1231;61417;-90
2023/05/06 11:29:36;;;;;;;5.10;2.00;;;;;;;17.15;19.89;101383.54;111237;1231;61098;-89